sensor_id;sensor_type;location;lat;lon;timestamp;P1;durP1;ratioP1;P2;durP2;ratioP2
17175;SDS011;8703;48.996;9.594;2023-05-31T00:00:11;3.20;;;1.33;;
17175;SDS011;8703;48.996;9.594;2023-05-31T00:02:39;3.20;;;1.40;;
17175;SDS011;8703;48.996;9.594;2023-05-31T00:05:06;3.17;;;1.50;;
17175;SDS011;8703;48.996;9.594;2023-05-31T00:07:35;2.17;;;1.43;;
17175;SDS011;8703;48.996;9.594;2023-05-31T00:10:02;3.73;;;1.33;;
17175;SDS011;8703;48.996;9.594;2023-05-31T00:12:31;4.27;;;1.40;;
17175;SDS011;8703;48.996;9.594;2023-05-31T00:14:59;3.60;;;1.77;;
17175;SDS011;8703;48.996;9.594;2023-05-31T00:17:26;2.80;;;1.50;;
17175;SDS011;8703;48.996;9.594;2023-05-31T00:19:54;4.07;;;1.70;;
17175;SDS011;8703;48.996;9.594;2023-05-31T00:22:21;3.53;;;1.37;;
17175;SDS011;8703;48.996;9.594;2023-05-31T00:24:48;5.17;;;1.30;;
17175;SDS011;8703;48.996;9.594;2023-05-31T00:27:16;4.07;;;1.50;;
17175;SDS011;8703;48.996;9.594;2023-05-31T00:29:44;3.80;;;1.50;;
17175;SDS011;8703;48.996;9.594;2023-05-31T00:32:12;3.13;;;1.43;;
17175;SDS011;8703;48.996;9.594;2023-05-31T00:34:39;4.60;;;1.67;;
17175;SDS011;8703;48.996;9.594;2023-05-31T00:37:06;4.10;;;1.57;;
17175;SDS011;8703;48.996;9.594;2023-05-31T00:39:34;2.73;;;1.63;;
17175;SDS011;8703;48.996;9.594;2023-05-31T00:42:01;4.40;;;1.40;;
17175;SDS011;8703;48.996;9.594;2023-05-31T00:44:28;2.60;;;1.60;;
17175;SDS011;8703;48.996;9.594;2023-05-31T00:46:57;2.30;;;1.53;;
17175;SDS011;8703;48.996;9.594;2023-05-31T00:49:25;3.80;;;1.83;;
17175;SDS011;8703;48.996;9.594;2023-05-31T00:51:53;3.60;;;1.57;;
17175;SDS011;8703;48.996;9.594;2023-05-31T00:54:21;3.37;;;1.67;;
17175;SDS011;8703;48.996;9.594;2023-05-31T00:56:48;3.93;;;1.77;;
17175;SDS011;8703;48.996;9.594;2023-05-31T00:59:16;7.87;;;1.90;;
17175;SDS011;8703;48.996;9.594;2023-05-31T01:01:43;2.90;;;1.50;;
17175;SDS011;8703;48.996;9.594;2023-05-31T01:04:12;2.73;;;1.50;;
17175;SDS011;8703;48.996;9.594;2023-05-31T01:06:40;3.40;;;1.60;;
17175;SDS011;8703;48.996;9.594;2023-05-31T01:09:07;3.73;;;1.50;;
17175;SDS011;8703;48.996;9.594;2023-05-31T01:11:39;2.47;;;1.43;;
17175;SDS011;8703;48.996;9.594;2023-05-31T01:14:20;2.37;;;1.50;;
17175;SDS011;8703;48.996;9.594;2023-05-31T01:16:54;3.73;;;1.77;;
17175;SDS011;8703;48.996;9.594;2023-05-31T01:19:42;2.57;;;1.60;;
17175;SDS011;8703;48.996;9.594;2023-05-31T01:22:13;2.77;;;1.50;;
17175;SDS011;8703;48.996;9.594;2023-05-31T01:24:59;3.67;;;1.77;;
17175;SDS011;8703;48.996;9.594;2023-05-31T01:27:50;2.67;;;1.50;;
17175;SDS011;8703;48.996;9.594;2023-05-31T01:30:19;2.80;;;1.60;;
17175;SDS011;8703;48.996;9.594;2023-05-31T01:32:48;4.10;;;1.57;;
17175;SDS011;8703;48.996;9.594;2023-05-31T01:35:16;2.57;;;1.53;;
17175;SDS011;8703;48.996;9.594;2023-05-31T01:37:43;3.17;;;1.70;;
17175;SDS011;8703;48.996;9.594;2023-05-31T01:40:11;2.47;;;1.37;;
17175;SDS011;8703;48.996;9.594;2023-05-31T01:42:39;2.80;;;1.63;;
17175;SDS011;8703;48.996;9.594;2023-05-31T01:45:08;3.43;;;1.70;;
17175;SDS011;8703;48.996;9.594;2023-05-31T01:47:36;2.33;;;1.40;;
17175;SDS011;8703;48.996;9.594;2023-05-31T01:50:05;1.97;;;1.33;;
17175;SDS011;8703;48.996;9.594;2023-05-31T01:52:34;3.30;;;1.50;;
17175;SDS011;8703;48.996;9.594;2023-05-31T01:55:01;2.83;;;1.40;;
17175;SDS011;8703;48.996;9.594;2023-05-31T01:57:29;3.03;;;1.70;;
17175;SDS011;8703;48.996;9.594;2023-05-31T01:59:57;2.90;;;1.60;;
17175;SDS011;8703;48.996;9.594;2023-05-31T02:02:28;3.20;;;1.80;;
17175;SDS011;8703;48.996;9.594;2023-05-31T02:05:03;3.70;;;1.90;;
17175;SDS011;8703;48.996;9.594;2023-05-31T02:07:33;2.63;;;1.60;;
17175;SDS011;8703;48.996;9.594;2023-05-31T02:10:01;3.60;;;1.50;;
17175;SDS011;8703;48.996;9.594;2023-05-31T02:12:30;3.30;;;1.70;;
17175;SDS011;8703;48.996;9.594;2023-05-31T02:14:57;2.97;;;1.93;;
17175;SDS011;8703;48.996;9.594;2023-05-31T02:17:25;3.23;;;1.70;;
17175;SDS011;8703;48.996;9.594;2023-05-31T02:19:55;3.47;;;1.40;;
17175;SDS011;8703;48.996;9.594;2023-05-31T02:22:22;2.73;;;1.73;;
17175;SDS011;8703;48.996;9.594;2023-05-31T02:24:50;8.80;;;1.67;;
17175;SDS011;8703;48.996;9.594;2023-05-31T02:27:17;4.10;;;2.00;;
17175;SDS011;8703;48.996;9.594;2023-05-31T02:29:45;4.70;;;1.80;;
17175;SDS011;8703;48.996;9.594;2023-05-31T02:32:12;4.20;;;1.97;;
17175;SDS011;8703;48.996;9.594;2023-05-31T02:34:39;4.43;;;1.73;;
17175;SDS011;8703;48.996;9.594;2023-05-31T02:37:08;3.07;;;1.67;;
17175;SDS011;8703;48.996;9.594;2023-05-31T02:39:36;3.80;;;2.10;;
17175;SDS011;8703;48.996;9.594;2023-05-31T02:42:03;3.77;;;1.80;;
17175;SDS011;8703;48.996;9.594;2023-05-31T02:44:31;2.70;;;1.67;;
17175;SDS011;8703;48.996;9.594;2023-05-31T02:46:58;3.10;;;1.90;;
17175;SDS011;8703;48.996;9.594;2023-05-31T02:49:25;3.77;;;1.63;;
17175;SDS011;8703;48.996;9.594;2023-05-31T02:51:53;1.67;;;1.43;;
17175;SDS011;8703;48.996;9.594;2023-05-31T02:54:22;5.40;;;1.60;;
17175;SDS011;8703;48.996;9.594;2023-05-31T02:56:49;3.20;;;1.50;;
17175;SDS011;8703;48.996;9.594;2023-05-31T02:59:16;3.70;;;1.70;;
17175;SDS011;8703;48.996;9.594;2023-05-31T03:01:44;2.67;;;1.60;;
17175;SDS011;8703;48.996;9.594;2023-05-31T03:04:11;3.47;;;1.90;;
17175;SDS011;8703;48.996;9.594;2023-05-31T03:06:38;4.40;;;1.73;;
17175;SDS011;8703;48.996;9.594;2023-05-31T03:09:07;3.67;;;1.90;;
17175;SDS011;8703;48.996;9.594;2023-05-31T03:11:40;2.50;;;1.60;;
17175;SDS011;8703;48.996;9.594;2023-05-31T03:14:07;3.50;;;1.90;;
17175;SDS011;8703;48.996;9.594;2023-05-31T03:16:35;3.23;;;1.50;;
17175;SDS011;8703;48.996;9.594;2023-05-31T03:19:02;5.00;;;1.83;;
17175;SDS011;8703;48.996;9.594;2023-05-31T03:21:29;4.87;;;1.97;;
17175;SDS011;8703;48.996;9.594;2023-05-31T03:23:57;3.87;;;1.90;;
17175;SDS011;8703;48.996;9.594;2023-05-31T03:26:24;5.10;;;1.87;;
17175;SDS011;8703;48.996;9.594;2023-05-31T03:28:53;4.37;;;1.70;;
17175;SDS011;8703;48.996;9.594;2023-05-31T03:31:20;2.53;;;1.70;;
17175;SDS011;8703;48.996;9.594;2023-05-31T03:33:47;2.77;;;1.53;;
17175;SDS011;8703;48.996;9.594;2023-05-31T03:36:15;2.53;;;1.60;;
17175;SDS011;8703;48.996;9.594;2023-05-31T03:38:43;3.30;;;1.90;;
17175;SDS011;8703;48.996;9.594;2023-05-31T03:41:10;4.80;;;1.93;;
17175;SDS011;8703;48.996;9.594;2023-05-31T03:43:37;4.70;;;1.77;;
17175;SDS011;8703;48.996;9.594;2023-05-31T03:46:06;7.97;;;3.50;;
17175;SDS011;8703;48.996;9.594;2023-05-31T03:48:33;60.13;;;32.03;;
17175;SDS011;8703;48.996;9.594;2023-05-31T03:51:01;11.73;;;5.10;;
17175;SDS011;8703;48.996;9.594;2023-05-31T03:53:28;61.23;;;28.43;;
17175;SDS011;8703;48.996;9.594;2023-05-31T03:55:56;292.00;;;125.27;;
17175;SDS011;8703;48.996;9.594;2023-05-31T03:58:23;134.47;;;58.20;;
17175;SDS011;8703;48.996;9.594;2023-05-31T04:00:50;38.10;;;18.77;;
17175;SDS011;8703;48.996;9.594;2023-05-31T04:03:19;5.90;;;2.70;;
17175;SDS011;8703;48.996;9.594;2023-05-31T04:05:47;2.90;;;1.67;;
17175;SDS011;8703;48.996;9.594;2023-05-31T04:08:14;10.47;;;4.30;;
17175;SDS011;8703;48.996;9.594;2023-05-31T04:10:42;49.53;;;26.43;;
17175;SDS011;8703;48.996;9.594;2023-05-31T04:13:10;26.37;;;15.03;;
17175;SDS011;8703;48.996;9.594;2023-05-31T04:15:37;21.90;;;11.77;;
17175;SDS011;8703;48.996;9.594;2023-05-31T04:18:05;23.43;;;12.23;;
17175;SDS011;8703;48.996;9.594;2023-05-31T04:20:34;44.40;;;20.13;;
17175;SDS011;8703;48.996;9.594;2023-05-31T04:23:01;73.73;;;34.13;;
17175;SDS011;8703;48.996;9.594;2023-05-31T04:25:29;79.03;;;37.87;;
17175;SDS011;8703;48.996;9.594;2023-05-31T04:27:56;129.17;;;53.50;;
17175;SDS011;8703;48.996;9.594;2023-05-31T04:30:23;140.53;;;65.00;;
17175;SDS011;8703;48.996;9.594;2023-05-31T04:32:52;106.33;;;51.03;;
17175;SDS011;8703;48.996;9.594;2023-05-31T04:35:21;60.67;;;31.20;;
17175;SDS011;8703;48.996;9.594;2023-05-31T04:37:54;40.13;;;20.23;;
17175;SDS011;8703;48.996;9.594;2023-05-31T04:40:24;26.30;;;14.17;;
17175;SDS011;8703;48.996;9.594;2023-05-31T04:42:51;16.20;;;8.90;;
17175;SDS011;8703;48.996;9.594;2023-05-31T04:45:19;13.63;;;7.30;;
17175;SDS011;8703;48.996;9.594;2023-05-31T04:47:46;12.37;;;7.30;;
17175;SDS011;8703;48.996;9.594;2023-05-31T04:50:15;7.30;;;3.50;;
17175;SDS011;8703;48.996;9.594;2023-05-31T04:52:42;8.77;;;3.60;;
17175;SDS011;8703;48.996;9.594;2023-05-31T04:55:11;8.47;;;3.10;;
17175;SDS011;8703;48.996;9.594;2023-05-31T04:57:39;5.17;;;2.47;;
17175;SDS011;8703;48.996;9.594;2023-05-31T05:00:06;5.70;;;2.57;;
17175;SDS011;8703;48.996;9.594;2023-05-31T05:02:35;4.83;;;2.50;;
17175;SDS011;8703;48.996;9.594;2023-05-31T05:05:02;5.57;;;3.77;;
17175;SDS011;8703;48.996;9.594;2023-05-31T05:07:32;2.80;;;2.17;;
17175;SDS011;8703;48.996;9.594;2023-05-31T05:10:00;4.50;;;1.90;;
17175;SDS011;8703;48.996;9.594;2023-05-31T05:12:29;5.03;;;2.10;;
17175;SDS011;8703;48.996;9.594;2023-05-31T05:14:56;4.87;;;2.13;;
17175;SDS011;8703;48.996;9.594;2023-05-31T05:17:23;5.63;;;2.40;;
17175;SDS011;8703;48.996;9.594;2023-05-31T05:19:51;3.87;;;2.33;;
17175;SDS011;8703;48.996;9.594;2023-05-31T05:22:18;5.13;;;2.70;;
17175;SDS011;8703;48.996;9.594;2023-05-31T05:24:45;7.13;;;3.60;;
17175;SDS011;8703;48.996;9.594;2023-05-31T05:27:13;6.67;;;3.60;;
17175;SDS011;8703;48.996;9.594;2023-05-31T05:29:42;8.80;;;3.47;;
17175;SDS011;8703;48.996;9.594;2023-05-31T05:32:09;8.60;;;3.50;;
17175;SDS011;8703;48.996;9.594;2023-05-31T05:34:36;5.13;;;3.00;;
17175;SDS011;8703;48.996;9.594;2023-05-31T05:37:04;9.27;;;3.60;;
17175;SDS011;8703;48.996;9.594;2023-05-31T05:39:31;9.63;;;3.97;;
17175;SDS011;8703;48.996;9.594;2023-05-31T05:41:59;4.43;;;2.70;;
17175;SDS011;8703;48.996;9.594;2023-05-31T05:44:27;5.20;;;2.10;;
17175;SDS011;8703;48.996;9.594;2023-05-31T05:46:56;5.67;;;1.73;;
17175;SDS011;8703;48.996;9.594;2023-05-31T05:49:23;5.73;;;1.70;;
17175;SDS011;8703;48.996;9.594;2023-05-31T05:51:51;3.80;;;1.77;;
17175;SDS011;8703;48.996;9.594;2023-05-31T05:54:19;2.77;;;1.63;;
17175;SDS011;8703;48.996;9.594;2023-05-31T05:56:46;3.90;;;1.80;;
17175;SDS011;8703;48.996;9.594;2023-05-31T05:59:14;4.00;;;1.43;;
17175;SDS011;8703;48.996;9.594;2023-05-31T06:01:41;3.30;;;1.40;;
17175;SDS011;8703;48.996;9.594;2023-05-31T06:04:10;4.03;;;1.50;;
17175;SDS011;8703;48.996;9.594;2023-05-31T06:06:37;5.80;;;1.80;;
17175;SDS011;8703;48.996;9.594;2023-05-31T06:09:05;4.40;;;1.90;;
17175;SDS011;8703;48.996;9.594;2023-05-31T06:11:32;3.20;;;1.83;;
17175;SDS011;8703;48.996;9.594;2023-05-31T06:13:59;3.40;;;1.90;;
17175;SDS011;8703;48.996;9.594;2023-05-31T06:16:27;3.63;;;2.03;;
17175;SDS011;8703;48.996;9.594;2023-05-31T06:18:55;4.77;;;1.90;;
17175;SDS011;8703;48.996;9.594;2023-05-31T06:21:23;4.80;;;1.83;;
17175;SDS011;8703;48.996;9.594;2023-05-31T06:23:51;5.73;;;2.10;;
17175;SDS011;8703;48.996;9.594;2023-05-31T06:26:18;5.07;;;1.97;;
17175;SDS011;8703;48.996;9.594;2023-05-31T06:28:46;3.67;;;1.90;;
17175;SDS011;8703;48.996;9.594;2023-05-31T06:31:13;5.10;;;1.80;;
17175;SDS011;8703;48.996;9.594;2023-05-31T06:33:40;3.53;;;1.93;;
17175;SDS011;8703;48.996;9.594;2023-05-31T06:36:08;3.73;;;2.00;;
17175;SDS011;8703;48.996;9.594;2023-05-31T06:38:36;6.07;;;2.47;;
17175;SDS011;8703;48.996;9.594;2023-05-31T06:41:04;4.47;;;2.00;;
17175;SDS011;8703;48.996;9.594;2023-05-31T06:43:31;4.73;;;2.10;;
17175;SDS011;8703;48.996;9.594;2023-05-31T06:45:59;3.93;;;1.73;;
17175;SDS011;8703;48.996;9.594;2023-05-31T06:48:26;4.73;;;2.07;;
17175;SDS011;8703;48.996;9.594;2023-05-31T06:50:53;4.23;;;2.20;;
17175;SDS011;8703;48.996;9.594;2023-05-31T06:53:21;4.80;;;2.40;;
17175;SDS011;8703;48.996;9.594;2023-05-31T06:55:50;7.33;;;2.20;;
17175;SDS011;8703;48.996;9.594;2023-05-31T06:58:17;5.07;;;2.17;;
17175;SDS011;8703;48.996;9.594;2023-05-31T07:00:45;3.90;;;2.03;;
17175;SDS011;8703;48.996;9.594;2023-05-31T07:03:12;4.40;;;2.03;;
17175;SDS011;8703;48.996;9.594;2023-05-31T07:05:39;4.63;;;2.10;;
17175;SDS011;8703;48.996;9.594;2023-05-31T07:08:09;4.40;;;1.80;;
17175;SDS011;8703;48.996;9.594;2023-05-31T07:10:36;4.22;;;2.03;;
17175;SDS011;8703;48.996;9.594;2023-05-31T07:13:04;3.63;;;2.00;;
17175;SDS011;8703;48.996;9.594;2023-05-31T07:15:32;6.18;;;2.47;;
17175;SDS011;8703;48.996;9.594;2023-05-31T07:18:00;5.28;;;2.70;;
17175;SDS011;8703;48.996;9.594;2023-05-31T07:20:27;5.87;;;2.70;;
17175;SDS011;8703;48.996;9.594;2023-05-31T07:22:56;4.47;;;2.00;;
17175;SDS011;8703;48.996;9.594;2023-05-31T07:25:23;4.43;;;2.13;;
17175;SDS011;8703;48.996;9.594;2023-05-31T07:27:50;6.25;;;3.40;;
17175;SDS011;8703;48.996;9.594;2023-05-31T07:30:19;7.25;;;2.53;;
17175;SDS011;8703;48.996;9.594;2023-05-31T07:32:47;5.72;;;2.40;;
17175;SDS011;8703;48.996;9.594;2023-05-31T07:35:14;5.40;;;2.10;;
17175;SDS011;8703;48.996;9.594;2023-05-31T07:37:41;7.40;;;3.85;;
17175;SDS011;8703;48.996;9.594;2023-05-31T07:40:09;5.75;;;2.50;;
17175;SDS011;8703;48.996;9.594;2023-05-31T07:42:38;5.72;;;2.95;;
17175;SDS011;8703;48.996;9.594;2023-05-31T07:45:07;2.97;;;2.20;;
17175;SDS011;8703;48.996;9.594;2023-05-31T07:47:37;5.05;;;2.42;;
17175;SDS011;8703;48.996;9.594;2023-05-31T07:50:05;7.22;;;2.10;;
17175;SDS011;8703;48.996;9.594;2023-05-31T07:52:33;4.55;;;1.90;;
17175;SDS011;8703;48.996;9.594;2023-05-31T07:55:00;4.55;;;2.10;;
17175;SDS011;8703;48.996;9.594;2023-05-31T07:57:28;3.58;;;1.83;;
17175;SDS011;8703;48.996;9.594;2023-05-31T07:59:57;6.28;;;2.38;;
17175;SDS011;8703;48.996;9.594;2023-05-31T08:02:24;4.65;;;2.10;;
17175;SDS011;8703;48.996;9.594;2023-05-31T08:04:53;3.38;;;1.77;;
17175;SDS011;8703;48.996;9.594;2023-05-31T08:07:25;4.03;;;2.00;;
17175;SDS011;8703;48.996;9.594;2023-05-31T08:09:52;6.43;;;2.28;;
17175;SDS011;8703;48.996;9.594;2023-05-31T08:12:19;4.38;;;2.00;;
17175;SDS011;8703;48.996;9.594;2023-05-31T08:14:47;7.80;;;2.20;;
17175;SDS011;8703;48.996;9.594;2023-05-31T08:17:14;3.85;;;1.90;;
17175;SDS011;8703;48.996;9.594;2023-05-31T08:19:41;3.72;;;2.20;;
17175;SDS011;8703;48.996;9.594;2023-05-31T08:22:10;4.53;;;1.90;;
17175;SDS011;8703;48.996;9.594;2023-05-31T08:24:37;6.03;;;2.13;;
17175;SDS011;8703;48.996;9.594;2023-05-31T08:27:05;3.92;;;2.25;;
17175;SDS011;8703;48.996;9.594;2023-05-31T08:29:32;3.65;;;1.90;;
17175;SDS011;8703;48.996;9.594;2023-05-31T08:32:00;3.15;;;2.13;;
17175;SDS011;8703;48.996;9.594;2023-05-31T08:34:28;3.58;;;1.80;;
17175;SDS011;8703;48.996;9.594;2023-05-31T08:36:55;3.75;;;1.90;;
17175;SDS011;8703;48.996;9.594;2023-05-31T08:39:24;5.78;;;1.95;;
17175;SDS011;8703;48.996;9.594;2023-05-31T08:41:52;4.68;;;1.85;;
17175;SDS011;8703;48.996;9.594;2023-05-31T08:44:23;4.88;;;2.28;;
17175;SDS011;8703;48.996;9.594;2023-05-31T08:46:51;4.30;;;2.10;;
17175;SDS011;8703;48.996;9.594;2023-05-31T08:49:18;4.75;;;2.10;;
17175;SDS011;8703;48.996;9.594;2023-05-31T08:51:45;3.22;;;2.10;;
17175;SDS011;8703;48.996;9.594;2023-05-31T08:54:15;3.88;;;1.98;;
17175;SDS011;8703;48.996;9.594;2023-05-31T08:56:45;4.47;;;2.00;;
17175;SDS011;8703;48.996;9.594;2023-05-31T08:59:12;5.47;;;2.25;;
17175;SDS011;8703;48.996;9.594;2023-05-31T09:01:42;5.07;;;2.17;;
17175;SDS011;8703;48.996;9.594;2023-05-31T09:04:10;4.93;;;1.90;;
17175;SDS011;8703;48.996;9.594;2023-05-31T09:06:37;4.88;;;2.15;;
17175;SDS011;8703;48.996;9.594;2023-05-31T09:09:05;4.25;;;2.00;;
17175;SDS011;8703;48.996;9.594;2023-05-31T09:11:34;2.70;;;1.90;;
17175;SDS011;8703;48.996;9.594;2023-05-31T09:14:04;3.90;;;2.15;;
17175;SDS011;8703;48.996;9.594;2023-05-31T09:16:31;4.55;;;2.42;;
17175;SDS011;8703;48.996;9.594;2023-05-31T09:18:59;2.92;;;2.03;;
17175;SDS011;8703;48.996;9.594;2023-05-31T09:21:27;4.90;;;2.38;;
17175;SDS011;8703;48.996;9.594;2023-05-31T09:23:55;3.63;;;2.10;;
17175;SDS011;8703;48.996;9.594;2023-05-31T09:26:25;4.90;;;2.17;;
17175;SDS011;8703;48.996;9.594;2023-05-31T09:28:53;5.88;;;2.40;;
17175;SDS011;8703;48.996;9.594;2023-05-31T09:31:23;4.35;;;1.90;;
17175;SDS011;8703;48.996;9.594;2023-05-31T09:33:51;8.45;;;2.03;;
17175;SDS011;8703;48.996;9.594;2023-05-31T09:36:23;6.28;;;2.33;;
17175;SDS011;8703;48.996;9.594;2023-05-31T09:38:52;4.43;;;1.90;;
17175;SDS011;8703;48.996;9.594;2023-05-31T09:41:26;3.67;;;2.20;;
17175;SDS011;8703;48.996;9.594;2023-05-31T09:43:54;4.30;;;2.30;;
17175;SDS011;8703;48.996;9.594;2023-05-31T09:46:25;6.50;;;2.30;;
17175;SDS011;8703;48.996;9.594;2023-05-31T09:48:59;3.38;;;2.05;;
17175;SDS011;8703;48.996;9.594;2023-05-31T09:51:28;3.70;;;2.38;;
17175;SDS011;8703;48.996;9.594;2023-05-31T09:53:57;3.80;;;1.90;;
17175;SDS011;8703;48.996;9.594;2023-05-31T09:56:27;5.43;;;2.35;;
17175;SDS011;8703;48.996;9.594;2023-05-31T09:58:55;4.88;;;2.20;;
17175;SDS011;8703;48.996;9.594;2023-05-31T10:01:24;4.20;;;2.28;;
17175;SDS011;8703;48.996;9.594;2023-05-31T10:03:51;4.88;;;2.00;;
17175;SDS011;8703;48.996;9.594;2023-05-31T10:06:19;3.15;;;2.15;;
17175;SDS011;8703;48.996;9.594;2023-05-31T10:08:47;5.22;;;2.10;;
17175;SDS011;8703;48.996;9.594;2023-05-31T10:11:16;4.63;;;1.90;;
17175;SDS011;8703;48.996;9.594;2023-05-31T10:13:47;4.65;;;2.08;;
17175;SDS011;8703;48.996;9.594;2023-05-31T10:16:16;5.00;;;1.95;;
17175;SDS011;8703;48.996;9.594;2023-05-31T10:18:45;3.78;;;1.90;;
17175;SDS011;8703;48.996;9.594;2023-05-31T10:21:16;4.95;;;1.95;;
17175;SDS011;8703;48.996;9.594;2023-05-31T10:23:49;4.80;;;2.10;;
17175;SDS011;8703;48.996;9.594;2023-05-31T10:26:21;3.85;;;2.22;;
17175;SDS011;8703;48.996;9.594;2023-05-31T10:28:54;7.75;;;2.13;;
17175;SDS011;8703;48.996;9.594;2023-05-31T10:31:25;4.15;;;1.90;;
17175;SDS011;8703;48.996;9.594;2023-05-31T10:34:00;2.88;;;1.98;;
17175;SDS011;8703;48.996;9.594;2023-05-31T10:36:32;3.08;;;1.75;;
17175;SDS011;8703;48.996;9.594;2023-05-31T10:39:09;6.47;;;2.00;;
17175;SDS011;8703;48.996;9.594;2023-05-31T10:41:41;4.10;;;2.00;;
17175;SDS011;8703;48.996;9.594;2023-05-31T10:44:12;3.80;;;2.00;;
17175;SDS011;8703;48.996;9.594;2023-05-31T10:46:44;3.72;;;1.83;;
17175;SDS011;8703;48.996;9.594;2023-05-31T10:49:14;5.22;;;2.08;;
17175;SDS011;8703;48.996;9.594;2023-05-31T10:51:42;6.68;;;2.08;;
17175;SDS011;8703;48.996;9.594;2023-05-31T10:54:13;3.95;;;2.00;;
17175;SDS011;8703;48.996;9.594;2023-05-31T10:56:51;4.28;;;1.88;;
17175;SDS011;8703;48.996;9.594;2023-05-31T10:59:19;4.20;;;1.98;;
17175;SDS011;8703;48.996;9.594;2023-05-31T11:01:46;4.03;;;1.98;;
17175;SDS011;8703;48.996;9.594;2023-05-31T11:04:21;3.95;;;1.98;;
17175;SDS011;8703;48.996;9.594;2023-05-31T11:06:51;6.55;;;1.90;;
17175;SDS011;8703;48.996;9.594;2023-05-31T11:09:20;6.85;;;2.10;;
17175;SDS011;8703;48.996;9.594;2023-05-31T11:11:48;7.20;;;2.10;;
17175;SDS011;8703;48.996;9.594;2023-05-31T11:14:23;3.63;;;1.85;;
17175;SDS011;8703;48.996;9.594;2023-05-31T11:19:42;3.45;;;1.92;;
17175;SDS011;8703;48.996;9.594;2023-05-31T11:22:16;4.03;;;1.83;;
17175;SDS011;8703;48.996;9.594;2023-05-31T11:24:48;3.42;;;1.83;;
17175;SDS011;8703;48.996;9.594;2023-05-31T11:27:19;4.60;;;2.10;;
17175;SDS011;8703;48.996;9.594;2023-05-31T11:29:56;4.28;;;1.98;;
17175;SDS011;8703;48.996;9.594;2023-05-31T11:35:22;3.58;;;1.77;;
17175;SDS011;8703;48.996;9.594;2023-05-31T11:37:58;5.40;;;2.22;;
17175;SDS011;8703;48.996;9.594;2023-05-31T11:40:30;3.40;;;2.30;;
17175;SDS011;8703;48.996;9.594;2023-05-31T11:43:10;3.40;;;2.03;;
17175;SDS011;8703;48.996;9.594;2023-05-31T11:45:44;3.83;;;2.20;;
17175;SDS011;8703;48.996;9.594;2023-05-31T11:51:02;3.72;;;1.98;;
17175;SDS011;8703;48.996;9.594;2023-05-31T11:53:30;4.68;;;2.30;;
17175;SDS011;8703;48.996;9.594;2023-05-31T11:55:58;5.68;;;2.60;;
17175;SDS011;8703;48.996;9.594;2023-05-31T11:58:25;5.80;;;2.08;;
17175;SDS011;8703;48.996;9.594;2023-05-31T12:00:56;3.28;;;2.90;;
17175;SDS011;8703;48.996;9.594;2023-05-31T12:03:24;3.70;;;2.20;;
17175;SDS011;8703;48.996;9.594;2023-05-31T12:05:56;7.38;;;3.50;;
17175;SDS011;8703;48.996;9.594;2023-05-31T12:08:25;5.90;;;4.57;;
17175;SDS011;8703;48.996;9.594;2023-05-31T12:10:53;5.03;;;2.40;;
17175;SDS011;8703;48.996;9.594;2023-05-31T12:13:28;5.20;;;3.78;;
17175;SDS011;8703;48.996;9.594;2023-05-31T12:15:56;4.70;;;2.50;;
17175;SDS011;8703;48.996;9.594;2023-05-31T12:18:23;3.55;;;2.60;;
17175;SDS011;8703;48.996;9.594;2023-05-31T12:20:50;3.03;;;2.33;;
17175;SDS011;8703;48.996;9.594;2023-05-31T12:23:18;3.20;;;2.50;;
17175;SDS011;8703;48.996;9.594;2023-05-31T12:25:47;3.50;;;3.20;;
17175;SDS011;8703;48.996;9.594;2023-05-31T12:28:16;3.90;;;3.50;;
17175;SDS011;8703;48.996;9.594;2023-05-31T12:30:44;4.30;;;3.80;;
17175;SDS011;8703;48.996;9.594;2023-05-31T12:33:11;4.18;;;3.78;;
17175;SDS011;8703;48.996;9.594;2023-05-31T12:35:39;5.57;;;4.05;;
17175;SDS011;8703;48.996;9.594;2023-05-31T12:38:11;7.43;;;5.70;;
17175;SDS011;8703;48.996;9.594;2023-05-31T12:40:40;7.38;;;5.45;;
17175;SDS011;8703;48.996;9.594;2023-05-31T12:43:09;4.43;;;3.90;;
17175;SDS011;8703;48.996;9.594;2023-05-31T12:45:39;4.63;;;3.85;;
17175;SDS011;8703;48.996;9.594;2023-05-31T12:48:07;5.70;;;5.20;;
17175;SDS011;8703;48.996;9.594;2023-05-31T12:50:36;7.50;;;5.30;;
17175;SDS011;8703;48.996;9.594;2023-05-31T12:53:09;3.55;;;3.05;;
17175;SDS011;8703;48.996;9.594;2023-05-31T12:55:37;4.03;;;3.70;;
17175;SDS011;8703;48.996;9.594;2023-05-31T12:58:04;5.03;;;4.28;;
17175;SDS011;8703;48.996;9.594;2023-05-31T13:00:33;6.65;;;5.93;;
17175;SDS011;8703;48.996;9.594;2023-05-31T13:03:01;4.93;;;4.53;;
17175;SDS011;8703;48.996;9.594;2023-05-31T13:05:28;6.45;;;5.50;;
17175;SDS011;8703;48.996;9.594;2023-05-31T13:07:55;6.10;;;5.60;;
17175;SDS011;8703;48.996;9.594;2023-05-31T13:10:23;7.43;;;6.72;;
17175;SDS011;8703;48.996;9.594;2023-05-31T13:12:50;8.27;;;7.60;;
17175;SDS011;8703;48.996;9.594;2023-05-31T13:15:18;5.90;;;5.00;;
17175;SDS011;8703;48.996;9.594;2023-05-31T13:17:46;8.68;;;8.10;;
17175;SDS011;8703;48.996;9.594;2023-05-31T13:20:14;6.07;;;5.53;;
17175;SDS011;8703;48.996;9.594;2023-05-31T13:22:42;6.05;;;5.57;;
17175;SDS011;8703;48.996;9.594;2023-05-31T13:25:09;8.88;;;8.27;;
17175;SDS011;8703;48.996;9.594;2023-05-31T13:27:36;7.43;;;5.60;;
17175;SDS011;8703;48.996;9.594;2023-05-31T13:30:05;6.90;;;6.38;;
17175;SDS011;8703;48.996;9.594;2023-05-31T13:32:34;6.40;;;5.80;;
17175;SDS011;8703;48.996;9.594;2023-05-31T13:35:03;7.63;;;6.82;;
17175;SDS011;8703;48.996;9.594;2023-05-31T13:37:33;7.85;;;7.10;;
17175;SDS011;8703;48.996;9.594;2023-05-31T13:40:00;7.93;;;7.25;;
17175;SDS011;8703;48.996;9.594;2023-05-31T13:42:28;10.23;;;9.50;;
17175;SDS011;8703;48.996;9.594;2023-05-31T13:44:55;9.85;;;9.25;;
17175;SDS011;8703;48.996;9.594;2023-05-31T13:47:23;10.50;;;9.75;;
17175;SDS011;8703;48.996;9.594;2023-05-31T13:49:50;12.43;;;11.65;;
17175;SDS011;8703;48.996;9.594;2023-05-31T13:52:19;10.07;;;9.48;;
17175;SDS011;8703;48.996;9.594;2023-05-31T13:54:46;6.97;;;6.47;;
17175;SDS011;8703;48.996;9.594;2023-05-31T13:57:14;8.73;;;8.05;;
17175;SDS011;8703;48.996;9.594;2023-05-31T13:59:41;7.05;;;5.63;;
17175;SDS011;8703;48.996;9.594;2023-05-31T14:02:08;9.23;;;8.50;;
17175;SDS011;8703;48.996;9.594;2023-05-31T14:04:36;7.95;;;7.13;;
17175;SDS011;8703;48.996;9.594;2023-05-31T14:07:03;10.52;;;9.85;;
17175;SDS011;8703;48.996;9.594;2023-05-31T14:09:32;10.38;;;9.57;;
17175;SDS011;8703;48.996;9.594;2023-05-31T14:12:00;8.98;;;7.65;;
17175;SDS011;8703;48.996;9.594;2023-05-31T14:14:28;9.43;;;8.77;;
17175;SDS011;8703;48.996;9.594;2023-05-31T14:16:55;9.07;;;8.45;;
17175;SDS011;8703;48.996;9.594;2023-05-31T14:19:22;9.25;;;8.45;;
17175;SDS011;8703;48.996;9.594;2023-05-31T14:21:50;8.18;;;7.30;;
17175;SDS011;8703;48.996;9.594;2023-05-31T14:24:17;14.57;;;13.55;;
17175;SDS011;8703;48.996;9.594;2023-05-31T14:26:46;9.68;;;9.00;;
17175;SDS011;8703;48.996;9.594;2023-05-31T14:29:13;12.68;;;11.75;;
17175;SDS011;8703;48.996;9.594;2023-05-31T14:31:40;12.82;;;12.02;;
17175;SDS011;8703;48.996;9.594;2023-05-31T14:34:08;8.73;;;8.18;;
17175;SDS011;8703;48.996;9.594;2023-05-31T14:36:35;10.93;;;10.13;;
17175;SDS011;8703;48.996;9.594;2023-05-31T14:39:02;21.30;;;20.08;;
17175;SDS011;8703;48.996;9.594;2023-05-31T14:41:30;13.23;;;12.40;;
17175;SDS011;8703;48.996;9.594;2023-05-31T14:43:59;11.93;;;11.05;;
17175;SDS011;8703;48.996;9.594;2023-05-31T14:46:27;14.35;;;13.48;;
17175;SDS011;8703;48.996;9.594;2023-05-31T14:48:54;13.43;;;12.43;;
17175;SDS011;8703;48.996;9.594;2023-05-31T14:51:22;12.30;;;11.45;;
17175;SDS011;8703;48.996;9.594;2023-05-31T14:53:49;19.85;;;18.65;;
17175;SDS011;8703;48.996;9.594;2023-05-31T14:56:17;18.42;;;17.38;;
17175;SDS011;8703;48.996;9.594;2023-05-31T14:58:44;23.30;;;21.85;;
17175;SDS011;8703;48.996;9.594;2023-05-31T15:01:13;19.98;;;18.77;;
17175;SDS011;8703;48.996;9.594;2023-05-31T15:03:40;31.58;;;29.98;;
17175;SDS011;8703;48.996;9.594;2023-05-31T15:06:08;35.28;;;33.40;;
17175;SDS011;8703;48.996;9.594;2023-05-31T15:08:35;26.90;;;25.25;;
17175;SDS011;8703;48.996;9.594;2023-05-31T15:11:03;37.65;;;35.65;;
17175;SDS011;8703;48.996;9.594;2023-05-31T15:13:30;25.80;;;24.38;;